createdAt,value
2023-02-06T00:02:36.640Z,101849.81
2023-02-06T00:05:40.460Z,101851.22
2023-02-06T00:08:43.714Z,101858.34
2023-02-06T00:11:47.154Z,101858.53
2023-02-06T00:14:50.349Z,101851.88
2023-02-06T00:17:53.775Z,101856.19
2023-02-06T00:20:56.823Z,101867.84
2023-02-06T00:24:01.911Z,101865.03
2023-02-06T00:27:05.431Z,101859.56
2023-02-06T00:30:10.542Z,101855.53
2023-02-06T00:33:13.848Z,101849.66
2023-02-06T00:36:18.284Z,101858.97
2023-02-06T00:39:21.518Z,101852.94
2023-02-06T00:42:24.952Z,101851.63
2023-02-06T00:45:28.182Z,101865.94
2023-02-06T00:48:31.707Z,101866.88
2023-02-06T00:51:38.912Z,101861.72
2023-02-06T00:54:42.454Z,101859.03
2023-02-06T00:57:45.672Z,101855.72
2023-02-06T01:00:50.238Z,101865.31
2023-02-06T01:03:54.048Z,101860.22
2023-02-06T01:06:57.356Z,101866.53
2023-02-06T01:10:00.564Z,101862.94
2023-02-06T01:13:04.262Z,101866.75
2023-02-06T01:16:09.315Z,101860.00
2023-02-06T01:19:13.990Z,101856.31
2023-02-06T01:22:17.147Z,101860.09
2023-02-06T01:25:21.597Z,101865.84
2023-02-06T01:28:24.829Z,101872.56
2023-02-06T01:31:30.396Z,101874.19
2023-02-06T01:34:33.892Z,101870.16
2023-02-06T01:37:37.997Z,101857.56
2023-02-06T01:40:42.566Z,101867.16
2023-02-06T01:44:17.346Z,101870.69
2023-02-06T01:47:20.433Z,101854.88
2023-02-06T01:50:24.319Z,101864.66
2023-02-06T01:53:28.636Z,101862.03
2023-02-06T01:56:35.140Z,101852.69
2023-02-06T01:59:40.129Z,101857.75
2023-02-06T02:02:45.525Z,101849.66
2023-02-06T02:05:49.912Z,101854.34
2023-02-06T02:08:55.505Z,101850.53
2023-02-06T02:11:59.781Z,101861.31
2023-02-06T02:15:03.202Z,101854.25
2023-02-06T02:18:13.487Z,101851.81
2023-02-06T02:21:21.549Z,101868.69
2023-02-06T02:25:02.261Z,101857.72
2023-02-06T02:28:05.272Z,101867.66
2023-02-06T02:31:30.684Z,101863.78
2023-02-06T02:34:57.739Z,101857.72
2023-02-06T02:38:18.551Z,101857.72
2023-02-06T02:41:47.284Z,101864.00
2023-02-06T02:44:55.037Z,101858.16
2023-02-06T02:48:28.924Z,101858.94
2023-02-06T02:51:33.783Z,101846.41
2023-02-06T02:54:37.286Z,101839.25
2023-02-06T02:57:41.347Z,101851.84
2023-02-06T03:00:56.706Z,101856.94
2023-02-06T03:04:05.109Z,101861.41
2023-02-06T03:07:46.220Z,101856.09
2023-02-06T03:11:14.022Z,101872.31
2023-02-06T03:14:49.025Z,101853.69
2023-02-06T03:18:20.395Z,101855.72
2023-02-06T03:21:24.077Z,101860.19
2023-02-06T03:24:33.407Z,101862.84
2023-02-06T03:27:38.336Z,101864.06
2023-02-06T03:30:45.481Z,101854.94
2023-02-06T03:34:09.073Z,101866.72
2023-02-06T03:37:13.311Z,101864.09
2023-02-06T03:40:17.631Z,101857.97
2023-02-06T03:43:23.114Z,101860.81
2023-02-06T03:46:28.305Z,101854.72
2023-02-06T03:49:32.204Z,101858.78
2023-02-06T03:52:38.804Z,101865.88
2023-02-06T03:55:43.406Z,101869.72
2023-02-06T03:58:46.754Z,101865.06
2023-02-06T04:01:53.791Z,101863.66
2023-02-06T04:04:57.136Z,101849.63
2023-02-06T04:08:00.306Z,101858.16
2023-02-06T04:11:03.984Z,101874.59
2023-02-06T04:14:07.200Z,101872.16
2023-02-06T04:17:11.618Z,101865.25
2023-02-06T04:20:15.014Z,101870.16
2023-02-06T04:23:21.926Z,101868.50
2023-02-06T04:26:25.102Z,101868.09
2023-02-06T04:29:28.644Z,101864.06
2023-02-06T04:32:32.256Z,101867.09
2023-02-06T04:35:37.413Z,101861.63
2023-02-06T04:38:53.006Z,101862.25
2023-02-06T04:41:58.455Z,101861.44
2023-02-06T04:45:01.452Z,101862.88
2023-02-06T04:48:05.044Z,101869.75
2023-02-06T04:51:08.335Z,101872.81
2023-02-06T04:54:15.508Z,101871.16
2023-02-06T04:57:18.818Z,101878.50
2023-02-06T05:00:23.442Z,101879.72
2023-02-06T05:03:29.680Z,101883.56
2023-02-06T05:06:34.703Z,101887.63
2023-02-06T05:09:39.239Z,101883.16
2023-02-06T05:12:42.797Z,101886.63
2023-02-06T05:15:46.584Z,101881.97
2023-02-06T05:18:55.976Z,101880.31
2023-02-06T05:21:59.164Z,101900.63
2023-02-06T05:25:03.978Z,101901.44
2023-02-06T05:28:08.884Z,101906.50
2023-02-06T05:31:18.537Z,101902.62
2023-02-06T05:34:21.606Z,101898.16
2023-02-06T05:37:26.049Z,101906.50
2023-02-06T05:40:29.372Z,101906.88
2023-02-06T05:43:33.947Z,101904.87
2023-02-06T05:46:38.174Z,101901.00
2023-02-06T05:49:44.141Z,101901.22
2023-02-06T05:52:47.282Z,101910.53
2023-02-06T05:55:50.820Z,101895.56
2023-02-06T05:58:54.004Z,101901.41
2023-02-06T06:01:57.878Z,101904.06
2023-02-06T06:05:01.498Z,101905.88
2023-02-06T06:08:04.827Z,101906.69
2023-02-06T06:11:08.674Z,101901.00
2023-02-06T06:14:12.435Z,101904.06
2023-02-06T06:17:16.235Z,101906.69
2023-02-06T06:20:19.525Z,101907.72
2023-02-06T06:23:24.185Z,101910.97
2023-02-06T06:26:29.050Z,101903.63
2023-02-06T06:29:32.749Z,101909.94
2023-02-06T06:32:36.864Z,101913.41
2023-02-06T06:35:41.630Z,101909.16
2023-02-06T06:38:45.024Z,101911.59
2023-02-06T06:41:48.566Z,101903.66
2023-02-06T06:44:51.759Z,101911.97
2023-02-06T06:47:55.372Z,101901.81
2023-02-06T06:50:58.618Z,101894.91
2023-02-06T06:54:02.436Z,101893.88
2023-02-06T06:57:05.691Z,101890.19
2023-02-06T07:00:10.152Z,101890.03
2023-02-06T07:03:13.302Z,101903.78
2023-02-06T07:06:17.080Z,101908.09
2023-02-06T07:09:20.516Z,101912.72
2023-02-06T07:12:23.942Z,101904.13
2023-02-06T07:15:28.263Z,101913.06
2023-02-06T07:18:31.717Z,101905.69
2023-02-06T07:21:35.336Z,101900.84
2023-02-06T07:24:43.244Z,101901.41
2023-02-06T07:27:59.318Z,101909.31
2023-02-06T07:31:04.781Z,101908.41
2023-02-06T07:34:08.039Z,101917.53
2023-02-06T07:37:11.513Z,101918.66
2023-02-06T07:40:14.744Z,101915.75
2023-02-06T07:43:27.484Z,101917.09
2023-02-06T07:46:34.915Z,101920.09
2023-02-06T07:49:38.355Z,101911.50
2023-02-06T07:52:41.500Z,101916.34
2023-02-06T07:55:44.998Z,101917.53
2023-02-06T07:59:02.343Z,101924.50
2023-02-06T08:02:05.475Z,101918.28
2023-02-06T08:05:09.132Z,101915.47
2023-02-06T08:08:12.248Z,101921.53
2023-02-06T08:11:18.865Z,101915.59
2023-02-06T08:14:22.102Z,101926.81
2023-02-06T08:17:25.552Z,101917.87
2023-02-06T08:20:28.794Z,101911.09
2023-02-06T08:23:32.606Z,101910.12
2023-02-06T08:26:35.809Z,101906.44
2023-02-06T08:29:42.719Z,101904.66
2023-02-06T08:32:45.839Z,101900.78
2023-02-06T08:35:49.219Z,101902.19
2023-02-06T08:38:52.664Z,101899.41
2023-02-06T08:41:56.176Z,101897.87
2023-02-06T08:44:59.400Z,101901.03
2023-02-06T08:48:03.697Z,101903.03
2023-02-06T08:51:08.755Z,101905.22
2023-02-06T08:54:15.927Z,101895.59
2023-02-06T08:57:20.595Z,101911.19
2023-02-06T09:00:25.749Z,101920.69
2023-02-06T09:03:28.959Z,101911.03
2023-02-06T09:06:35.525Z,101922.25
2023-02-06T09:09:38.918Z,101923.41
2023-02-06T09:12:44.122Z,101919.53
2023-02-06T09:15:54.373Z,101923.19
2023-02-06T09:19:01.579Z,101929.00
2023-02-06T09:25:31.980Z,101932.31
2023-02-06T09:28:35.491Z,101933.25
2023-02-06T09:31:41.417Z,101930.00
2023-02-06T09:34:45.192Z,101933.59
2023-02-06T09:37:48.904Z,101943.13
2023-02-06T09:40:53.854Z,101937.78
2023-02-06T09:44:00.070Z,101941.06
2023-02-06T09:47:07.767Z,101932.41
2023-02-06T09:50:34.102Z,101941.72
2023-02-06T09:53:50.567Z,101933.31
2023-02-06T09:56:57.242Z,101935.34
2023-02-06T10:00:05.045Z,101937.56
2023-02-06T10:03:34.157Z,101938.69
2023-02-06T10:06:48.261Z,101934.84
2023-02-06T10:10:11.535Z,101922.72
2023-02-06T10:13:26.810Z,101920.41
2023-02-06T10:16:42.586Z,101923.88
2023-02-06T10:19:58.280Z,101915.53
2023-02-06T10:23:14.415Z,101918.63
2023-02-06T10:26:18.931Z,101917.66
2023-02-06T10:29:27.145Z,101912.53
2023-02-06T10:32:52.372Z,101911.03
2023-02-06T10:36:01.759Z,101894.91
2023-02-06T10:39:23.845Z,101887.41
2023-02-06T10:42:47.326Z,101877.59
2023-02-06T10:46:20.739Z,101874.59
2023-02-06T10:49:35.182Z,101874.03
2023-02-06T10:52:39.454Z,101875.62
2023-02-06T10:55:51.309Z,101868.94
2023-02-06T10:59:06.749Z,101869.78
2023-02-06T11:02:12.104Z,101868.25
2023-02-06T11:05:25.576Z,101866.50
2023-02-06T11:08:40.924Z,101867.59
2023-02-06T11:11:51.524Z,101865.31
2023-02-06T11:14:56.393Z,101866.06
2023-02-06T11:18:04.269Z,101854.59
2023-02-06T11:21:09.857Z,101843.53
2023-02-06T11:24:16.146Z,101843.16
2023-02-06T11:27:21.154Z,101838.88
2023-02-06T11:30:37.338Z,101842.22
2023-02-06T11:33:51.353Z,101835.88
2023-02-06T11:36:57.564Z,101834.13
2023-02-06T11:40:18.620Z,101826.69
2023-02-06T11:43:24.592Z,101825.72
2023-02-06T11:46:32.776Z,101823.09
2023-02-06T11:49:36.224Z,101808.41
2023-02-06T11:52:40.701Z,101812.34
2023-02-06T11:55:46.096Z,101807.56
2023-02-06T11:59:19.255Z,101812.00
2023-02-06T12:02:27.483Z,101806.94
2023-02-06T12:05:35.283Z,101795.16
2023-02-06T12:09:02.565Z,101789.81
2023-02-06T12:12:22.157Z,101790.25
2023-02-06T12:15:53.863Z,101790.34
2023-02-06T12:18:59.270Z,101783.78
2023-02-06T12:22:12.794Z,101781.19
2023-02-06T12:25:30.401Z,101783.38
2023-02-06T12:28:49.771Z,101774.94
2023-02-06T12:32:04.665Z,101772.25
2023-02-06T12:35:44.117Z,101769.00
2023-02-06T12:38:53.202Z,101769.13
2023-02-06T12:42:07.186Z,101772.34
2023-02-06T12:45:35.595Z,101768.41
2023-02-06T12:49:00.297Z,101764.34
2023-02-06T12:52:45.934Z,101757.56
2023-02-06T12:55:52.801Z,101759.44
2023-02-06T12:58:56.382Z,101761.69
2023-02-06T13:02:10.842Z,101760.88
2023-02-06T13:05:36.556Z,101753.28
2023-02-06T13:08:58.996Z,101751.78
2023-02-06T13:12:29.298Z,101754.88
2023-02-06T13:15:38.360Z,101750.53
2023-02-06T13:18:42.073Z,101753.72
2023-02-06T13:21:54.773Z,101754.03
2023-02-06T13:24:58.720Z,101759.44
2023-02-06T13:28:14.083Z,101753.56
2023-02-06T13:31:21.366Z,101749.28
2023-02-06T13:34:24.157Z,101756.00
2023-02-06T13:37:46.292Z,101740.62
2023-02-06T13:41:16.690Z,101750.59
2023-02-06T13:44:34.472Z,101749.53
2023-02-06T13:48:01.009Z,101751.94
2023-02-06T13:51:23.040Z,101758.28
2023-02-06T13:54:50.828Z,101754.06
2023-02-06T13:58:14.036Z,101754.72
2023-02-06T14:01:36.349Z,101754.00
2023-02-06T14:04:41.725Z,101746.59
2023-02-06T14:07:57.052Z,101753.03
2023-02-06T14:11:31.433Z,101753.53
2023-02-06T14:14:59.326Z,101748.97
2023-02-06T14:18:21.048Z,101758.75
2023-02-06T14:21:45.652Z,101765.75
2023-02-06T14:25:34.362Z,101766.59
2023-02-06T14:28:37.416Z,101770.72
2023-02-06T14:32:03.532Z,101769.47
2023-02-06T14:35:14.037Z,101775.66
2023-02-06T14:38:45.196Z,101772.75
2023-02-06T14:41:48.463Z,101770.16
2023-02-06T14:44:57.327Z,101771.66
2023-02-06T14:48:02.291Z,101760.28
2023-02-06T14:51:05.622Z,101770.50
2023-02-06T14:54:27.523Z,101775.50
2023-02-06T14:57:31.983Z,101779.34
2023-02-06T15:00:35.129Z,101777.44
2023-02-06T15:03:40.315Z,101774.28
2023-02-06T15:06:51.413Z,101771.84
2023-02-06T15:10:12.412Z,101779.44
2023-02-06T15:13:35.022Z,101781.88
2023-02-06T15:16:51.557Z,101782.94
2023-02-06T15:19:54.824Z,101785.75
2023-02-06T15:23:16.542Z,101785.50
2023-02-06T15:26:30.096Z,101786.00
2023-02-06T15:29:33.653Z,101788.53
2023-02-06T15:32:39.747Z,101794.47
2023-02-06T15:35:49.643Z,101800.59
2023-02-06T15:38:53.120Z,101801.16
2023-02-06T15:41:56.505Z,101805.22
2023-02-06T15:45:01.258Z,101808.88
2023-02-06T15:48:18.488Z,101808.75
2023-02-06T15:51:31.354Z,101815.84
2023-02-06T15:54:35.006Z,101815.75
2023-02-06T15:57:41.209Z,101816.28
2023-02-06T16:00:52.037Z,101827.63
2023-02-06T16:03:59.198Z,101831.47
2023-02-06T16:07:27.748Z,101825.38
2023-02-06T16:10:35.794Z,101830.91
2023-02-06T16:13:39.473Z,101830.22
2023-02-06T16:16:56.000Z,101834.94
2023-02-06T16:20:04.737Z,101844.28
2023-02-06T16:23:28.895Z,101847.56
2023-02-06T16:26:43.331Z,101836.66
2023-02-06T16:29:49.747Z,101847.03
2023-02-06T16:32:55.296Z,101846.50
2023-02-06T16:35:59.245Z,101849.19
2023-02-06T16:39:04.643Z,101856.47
2023-02-06T16:42:13.398Z,101854.22
2023-02-06T16:45:20.748Z,101855.50
2023-02-06T16:48:24.305Z,101860.34
2023-02-06T16:51:30.791Z,101849.63
2023-02-06T16:54:34.399Z,101856.22
2023-02-06T16:57:41.935Z,101858.19
2023-02-06T17:00:45.592Z,101863.75
2023-02-06T17:03:49.935Z,101859.12
2023-02-06T17:06:53.708Z,101866.50
2023-02-06T17:09:59.375Z,101866.03
2023-02-06T17:13:04.214Z,101858.53
2023-02-06T17:16:17.748Z,101858.66
2023-02-06T17:19:22.327Z,101860.25
2023-02-06T17:22:26.116Z,101862.41
2023-02-06T17:25:30.554Z,101863.69
2023-02-06T17:28:37.897Z,101874.28
2023-02-06T17:31:41.513Z,101871.38
2023-02-06T17:34:46.691Z,101879.22
2023-02-06T17:37:52.143Z,101866.16
2023-02-06T17:40:55.996Z,101875.06
2023-02-06T17:43:59.922Z,101872.19
2023-02-06T17:47:04.762Z,101872.19
2023-02-06T17:50:14.568Z,101875.50
2023-02-06T17:53:18.805Z,101882.06
2023-02-06T17:56:23.473Z,101883.53
2023-02-06T17:59:27.984Z,101882.13
2023-02-06T18:02:32.761Z,101887.53
2023-02-06T18:05:38.719Z,101885.91
2023-02-06T18:08:46.239Z,101893.84
2023-02-06T18:11:50.608Z,101893.78
2023-02-06T18:14:57.036Z,101892.91
2023-02-06T18:18:25.632Z,101900.94
2023-02-06T18:21:31.251Z,101894.34
2023-02-06T18:24:36.330Z,101904.56
2023-02-06T18:27:42.680Z,101906.56
2023-02-06T18:30:46.815Z,101914.00
2023-02-06T18:33:50.478Z,101907.50
2023-02-06T18:36:58.021Z,101909.59
2023-02-06T18:40:03.297Z,101905.38
2023-02-06T18:43:09.034Z,101905.44
2023-02-06T18:46:13.741Z,101904.66
2023-02-06T18:49:31.994Z,101912.00
2023-02-06T18:52:39.421Z,101914.03
2023-02-06T18:55:46.416Z,101913.31
2023-02-06T18:58:51.133Z,101910.06
2023-02-06T19:01:58.982Z,101916.00
2023-02-06T19:05:04.101Z,101914.31
2023-02-06T19:08:11.991Z,101915.72
2023-02-06T19:11:16.789Z,101909.41
2023-02-06T19:14:25.771Z,101912.06
2023-02-06T19:17:30.523Z,101919.56
2023-02-06T19:20:35.494Z,101921.53
2023-02-06T19:23:40.828Z,101920.38
2023-02-06T19:26:46.850Z,101923.72
2023-02-06T19:29:51.484Z,101921.72
2023-02-06T19:32:55.375Z,101931.16
2023-02-06T19:36:00.156Z,101934.84
2023-02-06T19:39:08.303Z,101938.22
2023-02-06T19:42:16.805Z,101935.19
2023-02-06T19:45:28.712Z,101935.00
2023-02-06T19:48:34.684Z,101941.34
2023-02-06T19:51:42.312Z,101950.09
2023-02-06T19:54:48.228Z,101950.94
2023-02-06T19:57:53.480Z,101951.94
2023-02-06T20:00:58.615Z,101967.56
2023-02-06T20:04:03.988Z,101971.91
2023-02-06T20:07:08.448Z,101975.38
2023-02-06T20:10:13.571Z,101968.91
2023-02-06T20:13:19.966Z,101979.31
2023-02-06T20:16:29.139Z,101982.00
2023-02-06T20:19:36.021Z,101989.72
2023-02-06T20:22:41.060Z,101994.44
2023-02-06T20:25:46.391Z,102004.44
2023-02-06T20:28:51.578Z,101997.53
2023-02-06T20:31:57.843Z,101992.09
2023-02-06T20:35:04.025Z,101989.84
2023-02-06T20:38:10.330Z,101978.31
2023-02-06T20:41:15.086Z,101988.69
2023-02-06T20:44:21.259Z,101983.59
2023-02-06T20:47:26.456Z,101978.94
2023-02-06T20:50:31.582Z,101973.03
2023-02-06T20:53:37.810Z,101978.72
2023-02-06T20:56:45.801Z,101979.37
2023-02-06T20:59:50.060Z,102000.72
2023-02-06T21:02:54.636Z,102006.81
2023-02-06T21:05:59.974Z,102000.75
2023-02-06T21:09:06.571Z,102003.37
2023-02-06T21:12:11.353Z,102000.91
2023-02-06T21:15:16.206Z,101998.69
2023-02-06T21:18:22.405Z,101996.06
2023-02-06T21:21:27.150Z,101996.28
2023-02-06T21:24:31.338Z,102010.91
2023-02-06T21:27:34.609Z,102012.16
2023-02-06T21:30:38.515Z,102018.25
2023-02-06T21:33:42.344Z,102020.06
2023-02-06T21:36:46.179Z,102022.31
2023-02-06T21:39:49.514Z,102020.91
2023-02-06T21:42:53.085Z,102016.19
2023-02-06T21:45:57.957Z,102016.41
2023-02-06T21:49:01.589Z,102011.75
2023-02-06T21:52:04.893Z,102009.53
2023-02-06T21:55:08.562Z,102016.84
2023-02-06T21:58:16.210Z,102020.91
2023-02-06T22:01:26.470Z,102033.09
2023-02-06T22:04:29.876Z,102036.56
2023-02-06T22:07:37.686Z,102033.94
2023-02-06T22:10:41.063Z,102037.63
2023-02-06T22:13:44.918Z,102031.91
2023-02-06T22:16:48.474Z,102038.44
2023-02-06T22:19:53.776Z,102033.16
2023-02-06T22:22:57.382Z,102045.12
2023-02-06T22:26:00.753Z,102050.22
2023-02-06T22:29:05.731Z,102043.72
2023-02-06T22:32:09.140Z,102041.09
2023-02-06T22:35:13.027Z,102036.19
2023-02-06T22:38:17.442Z,102032.75
2023-02-06T22:41:22.361Z,102032.34
2023-02-06T22:44:25.633Z,102036.59
2023-02-06T22:47:30.259Z,102036.00
2023-02-06T22:50:35.946Z,102038.84
2023-02-06T22:53:41.564Z,102041.09
2023-02-06T22:56:45.067Z,102049.44
2023-02-06T22:59:48.709Z,102062.22
2023-02-06T23:02:51.870Z,102063.00
2023-02-06T23:05:55.706Z,102074.41
2023-02-06T23:08:59.084Z,102064.44
2023-02-06T23:12:03.708Z,102068.13
2023-02-06T23:15:07.174Z,102072.59
2023-02-06T23:18:10.625Z,102081.09
2023-02-06T23:21:14.773Z,102077.47
2023-02-06T23:24:18.570Z,102083.75
2023-02-06T23:27:21.588Z,102078.84
2023-02-06T23:30:25.495Z,102083.16
2023-02-06T23:33:28.786Z,102069.53
2023-02-06T23:36:33.527Z,102075.00
2023-02-06T23:39:36.555Z,102079.09
2023-02-06T23:42:40.783Z,102081.72
2023-02-06T23:45:44.029Z,102072.78
2023-02-06T23:48:49.768Z,102078.25
2023-02-06T23:51:52.999Z,102074.78
2023-02-06T23:54:56.453Z,102074.78
2023-02-06T23:57:59.590Z,102080.87
